Astro Chloe — SVAL7 — position and weather

sailwx.info

Track history (hours):
 
Tides and Currents Weather Stations Pressure Air Temp Water Temp Dewpoint Dewpoint Depression Visibility Wind Speed Wind Dir Waves Ship Positions

Astro Chloe

Last reported at 2015-May-01 15:26 UTC. Time now 2015-May-04 10:02 UTC.
Position N 01°16' E 104°10'.

Length 333 m; draft 21 m.

Type: Ship (hazmat cat B). MMSI: 240839000.

Date/timePositionNaut miles runAvg speedWind from/ knotsBaromVisibWave heightAir tempDewpointWater temp
2015-May-01 15:26N 01°16' E 104°10'7 7.5
2015-May-01 14:32N 01°15' E 104°04'1010.0
2015-May-01 13:33N 01°13' E 103°54'6610.2
2015-May-01 07:04N 01°35' E 102°52'1111.3
2015-May-01 06:05N 01°41' E 102°42'711.2
2015-May-01 05:29N 01°43' E 102°36'1111.3
2015-May-01 04:32N 01°48' E 102°26'1511.4
2015-May-01 03:15N 01°54' E 102°13'1211.7
2015-May-01 02:13N 01°60' E 102°02'5210.8
2015-Apr-30 21:24N 02°35' E 101°24'1112.4
2015-Apr-30 20:33N 02°40' E 101°14'  
Track history (hours):
 
Tides and Currents Weather Stations Pressure Air Temp Water Temp Dewpoint Dewpoint Depression Visibility Wind Speed Wind Dir Waves Ship Positions

Astro Chloe

Last reported at 2015-May-01 15:26 UTC. Time now 2015-May-04 10:02 UTC.
Position N 01°16' E 104°10'.

Length 333 m; draft 21 m.

Type: Ship (hazmat cat B). MMSI: 240839000.

Date/timePositionNaut miles runAvg speedWind from/ knotsBaromVisibWave heightAir tempDewpointWater temp
2015-May-01 15:26N 01°16' E 104°10'7 7.5
2015-May-01 14:32N 01°15' E 104°04'1010.0
2015-May-01 13:33N 01°13' E 103°54'6610.2
2015-May-01 07:04N 01°35' E 102°52'1111.3
2015-May-01 06:05N 01°41' E 102°42'711.2
2015-May-01 05:29N 01°43' E 102°36'1111.3
2015-May-01 04:32N 01°48' E 102°26'1511.4
2015-May-01 03:15N 01°54' E 102°13'1211.7
2015-May-01 02:13N 01°60' E 102°02'5210.8
2015-Apr-30 21:24N 02°35' E 101°24'1112.4
2015-Apr-30 20:33N 02°40' E 101°14'  

Dump ship's entire track history